sensor_id;sensor_type;location;lat;lon;timestamp;P1;durP1;ratioP1;P2;durP2;ratioP2
17472;SDS011;8853;52.552;13.356;2022-07-22T00:00:45;5.20;;;4.67;;
17472;SDS011;8853;52.552;13.356;2022-07-22T00:03:13;4.90;;;4.30;;
17472;SDS011;8853;52.552;13.356;2022-07-22T00:05:43;6.58;;;4.85;;
17472;SDS011;8853;52.552;13.356;2022-07-22T00:08:11;6.45;;;4.80;;
17472;SDS011;8853;52.552;13.356;2022-07-22T00:10:40;5.50;;;4.60;;
17472;SDS011;8853;52.552;13.356;2022-07-22T00:13:09;4.33;;;3.90;;
17472;SDS011;8853;52.552;13.356;2022-07-22T00:15:38;7.50;;;4.30;;
17472;SDS011;8853;52.552;13.356;2022-07-22T00:18:07;4.58;;;3.90;;
17472;SDS011;8853;52.552;13.356;2022-07-22T00:20:35;5.50;;;4.55;;
17472;SDS011;8853;52.552;13.356;2022-07-22T00:23:04;7.92;;;4.80;;
17472;SDS011;8853;52.552;13.356;2022-07-22T00:25:33;7.08;;;4.37;;
17472;SDS011;8853;52.552;13.356;2022-07-22T00:28:01;4.87;;;4.20;;
17472;SDS011;8853;52.552;13.356;2022-07-22T00:30:44;5.72;;;4.42;;
17472;SDS011;8853;52.552;13.356;2022-07-22T00:33:12;5.75;;;4.20;;
17472;SDS011;8853;52.552;13.356;2022-07-22T00:35:41;5.80;;;4.15;;
17472;SDS011;8853;52.552;13.356;2022-07-22T00:38:10;5.05;;;4.20;;
17472;SDS011;8853;52.552;13.356;2022-07-22T00:40:38;5.75;;;4.60;;
17472;SDS011;8853;52.552;13.356;2022-07-22T00:43:07;4.87;;;4.10;;
17472;SDS011;8853;52.552;13.356;2022-07-22T00:45:36;4.65;;;4.25;;
17472;SDS011;8853;52.552;13.356;2022-07-22T00:48:04;4.55;;;4.10;;
17472;SDS011;8853;52.552;13.356;2022-07-22T00:50:34;6.35;;;4.20;;
17472;SDS011;8853;52.552;13.356;2022-07-22T00:53:02;4.20;;;3.80;;
17472;SDS011;8853;52.552;13.356;2022-07-22T00:55:32;4.70;;;4.12;;
17472;SDS011;8853;52.552;13.356;2022-07-22T00:58:00;5.78;;;4.03;;
17472;SDS011;8853;52.552;13.356;2022-07-22T01:00:28;4.37;;;3.90;;
17472;SDS011;8853;52.552;13.356;2022-07-22T01:02:57;4.97;;;3.90;;
17472;SDS011;8853;52.552;13.356;2022-07-22T01:05:26;5.15;;;4.30;;
17472;SDS011;8853;52.552;13.356;2022-07-22T01:07:54;4.72;;;4.00;;
17472;SDS011;8853;52.552;13.356;2022-07-22T01:10:41;5.78;;;4.00;;
17472;SDS011;8853;52.552;13.356;2022-07-22T01:13:10;5.25;;;3.62;;
17472;SDS011;8853;52.552;13.356;2022-07-22T01:15:38;5.08;;;3.72;;
17472;SDS011;8853;52.552;13.356;2022-07-22T01:18:07;5.80;;;4.10;;
17472;SDS011;8853;52.552;13.356;2022-07-22T01:20:37;4.47;;;3.52;;
17472;SDS011;8853;52.552;13.356;2022-07-22T01:23:05;4.53;;;3.72;;
17472;SDS011;8853;52.552;13.356;2022-07-22T01:25:34;4.22;;;3.50;;
17472;SDS011;8853;52.552;13.356;2022-07-22T01:28:02;4.72;;;3.50;;
17472;SDS011;8853;52.552;13.356;2022-07-22T01:30:31;4.47;;;3.40;;
17472;SDS011;8853;52.552;13.356;2022-07-22T01:33:00;4.25;;;3.40;;
17472;SDS011;8853;52.552;13.356;2022-07-22T01:35:28;4.15;;;3.30;;
17472;SDS011;8853;52.552;13.356;2022-07-22T01:37:58;4.33;;;3.40;;
17472;SDS011;8853;52.552;13.356;2022-07-22T01:40:26;4.10;;;3.37;;
17472;SDS011;8853;52.552;13.356;2022-07-22T01:42:55;3.58;;;3.27;;
17472;SDS011;8853;52.552;13.356;2022-07-22T01:45:23;3.90;;;3.42;;
17472;SDS011;8853;52.552;13.356;2022-07-22T01:47:52;4.65;;;3.27;;
17472;SDS011;8853;52.552;13.356;2022-07-22T01:50:21;4.70;;;3.30;;
17472;SDS011;8853;52.552;13.356;2022-07-22T01:52:50;3.60;;;3.27;;
17472;SDS011;8853;52.552;13.356;2022-07-22T01:55:19;4.15;;;3.05;;
17472;SDS011;8853;52.552;13.356;2022-07-22T01:57:48;4.22;;;3.40;;
17472;SDS011;8853;52.552;13.356;2022-07-22T02:00:16;4.28;;;3.33;;
17472;SDS011;8853;52.552;13.356;2022-07-22T02:02:45;3.45;;;3.10;;
17472;SDS011;8853;52.552;13.356;2022-07-22T02:05:14;3.83;;;3.10;;
17472;SDS011;8853;52.552;13.356;2022-07-22T02:07:43;3.65;;;3.10;;
17472;SDS011;8853;52.552;13.356;2022-07-22T02:10:11;4.83;;;3.05;;
17472;SDS011;8853;52.552;13.356;2022-07-22T02:12:41;3.65;;;3.20;;
17472;SDS011;8853;52.552;13.356;2022-07-22T02:15:10;3.40;;;3.10;;
17472;SDS011;8853;52.552;13.356;2022-07-22T02:17:38;3.95;;;3.20;;
17472;SDS011;8853;52.552;13.356;2022-07-22T02:20:07;4.08;;;3.00;;
17472;SDS011;8853;52.552;13.356;2022-07-22T02:22:36;3.87;;;3.27;;
17472;SDS011;8853;52.552;13.356;2022-07-22T02:25:05;3.35;;;2.60;;
17472;SDS011;8853;52.552;13.356;2022-07-22T02:27:33;4.20;;;3.08;;
17472;SDS011;8853;52.552;13.356;2022-07-22T02:30:03;5.97;;;3.55;;
17472;SDS011;8853;52.552;13.356;2022-07-22T02:32:31;3.55;;;3.00;;
17472;SDS011;8853;52.552;13.356;2022-07-22T02:34:59;5.28;;;3.20;;
17472;SDS011;8853;52.552;13.356;2022-07-22T02:37:28;3.83;;;3.08;;
17472;SDS011;8853;52.552;13.356;2022-07-22T02:39:56;4.35;;;3.25;;
17472;SDS011;8853;52.552;13.356;2022-07-22T02:42:25;4.42;;;3.42;;
17472;SDS011;8853;52.552;13.356;2022-07-22T02:44:54;3.65;;;3.17;;
17472;SDS011;8853;52.552;13.356;2022-07-22T02:47:22;4.65;;;3.50;;
17472;SDS011;8853;52.552;13.356;2022-07-22T02:49:51;3.77;;;2.83;;
17472;SDS011;8853;52.552;13.356;2022-07-22T02:52:19;6.72;;;3.37;;
17472;SDS011;8853;52.552;13.356;2022-07-22T02:54:49;3.42;;;2.98;;
17472;SDS011;8853;52.552;13.356;2022-07-22T03:01:24;4.33;;;3.20;;
17472;SDS011;8853;52.552;13.356;2022-07-22T03:03:53;6.08;;;3.52;;
17472;SDS011;8853;52.552;13.356;2022-07-22T03:06:21;5.03;;;3.00;;
17472;SDS011;8853;52.552;13.356;2022-07-22T03:08:50;3.72;;;3.10;;
17472;SDS011;8853;52.552;13.356;2022-07-22T03:11:19;3.42;;;3.12;;
17472;SDS011;8853;52.552;13.356;2022-07-22T03:13:47;3.90;;;3.17;;
17472;SDS011;8853;52.552;13.356;2022-07-22T03:16:17;4.15;;;3.58;;
17472;SDS011;8853;52.552;13.356;2022-07-22T03:18:45;3.70;;;3.30;;
17472;SDS011;8853;52.552;13.356;2022-07-22T03:21:14;6.33;;;3.30;;
17472;SDS011;8853;52.552;13.356;2022-07-22T03:23:43;4.03;;;3.10;;
17472;SDS011;8853;52.552;13.356;2022-07-22T03:26:12;5.53;;;3.10;;
17472;SDS011;8853;52.552;13.356;2022-07-22T03:28:40;4.72;;;3.10;;
17472;SDS011;8853;52.552;13.356;2022-07-22T03:31:09;4.42;;;3.30;;
17472;SDS011;8853;52.552;13.356;2022-07-22T03:33:38;4.58;;;3.10;;
17472;SDS011;8853;52.552;13.356;2022-07-22T03:36:06;4.37;;;3.25;;
17472;SDS011;8853;52.552;13.356;2022-07-22T03:38:35;4.17;;;3.40;;
17472;SDS011;8853;52.552;13.356;2022-07-22T03:41:04;3.80;;;3.30;;
17472;SDS011;8853;52.552;13.356;2022-07-22T03:43:32;3.70;;;3.35;;
17472;SDS011;8853;52.552;13.356;2022-07-22T03:46:01;4.85;;;3.50;;
17472;SDS011;8853;52.552;13.356;2022-07-22T03:48:29;4.20;;;3.40;;
17472;SDS011;8853;52.552;13.356;2022-07-22T03:50:58;3.98;;;3.45;;
17472;SDS011;8853;52.552;13.356;2022-07-22T03:53:27;5.33;;;3.30;;
17472;SDS011;8853;52.552;13.356;2022-07-22T03:55:55;5.97;;;3.37;;
17472;SDS011;8853;52.552;13.356;2022-07-22T03:58:25;4.03;;;3.10;;
17472;SDS011;8853;52.552;13.356;2022-07-22T04:00:53;3.85;;;3.40;;
17472;SDS011;8853;52.552;13.356;2022-07-22T04:03:22;5.70;;;3.27;;
17472;SDS011;8853;52.552;13.356;2022-07-22T04:05:50;4.00;;;3.45;;
17472;SDS011;8853;52.552;13.356;2022-07-22T04:08:19;4.83;;;3.77;;
17472;SDS011;8853;52.552;13.356;2022-07-22T04:10:48;4.37;;;3.30;;
17472;SDS011;8853;52.552;13.356;2022-07-22T04:13:16;5.33;;;3.67;;
17472;SDS011;8853;52.552;13.356;2022-07-22T04:15:45;4.22;;;3.40;;
17472;SDS011;8853;52.552;13.356;2022-07-22T04:18:13;3.83;;;3.27;;
17472;SDS011;8853;52.552;13.356;2022-07-22T04:20:42;4.47;;;3.42;;
17472;SDS011;8853;52.552;13.356;2022-07-22T04:23:11;4.60;;;3.67;;
17472;SDS011;8853;52.552;13.356;2022-07-22T04:25:40;5.08;;;3.83;;
17472;SDS011;8853;52.552;13.356;2022-07-22T04:28:09;4.45;;;3.40;;
17472;SDS011;8853;52.552;13.356;2022-07-22T04:30:37;5.10;;;3.60;;
17472;SDS011;8853;52.552;13.356;2022-07-22T04:33:06;3.90;;;3.50;;
17472;SDS011;8853;52.552;13.356;2022-07-22T04:35:36;4.30;;;3.22;;
17472;SDS011;8853;52.552;13.356;2022-07-22T04:38:04;4.25;;;3.72;;
17472;SDS011;8853;52.552;13.356;2022-07-22T04:40:33;4.53;;;3.47;;
17472;SDS011;8853;52.552;13.356;2022-07-22T04:43:02;6.05;;;3.60;;
17472;SDS011;8853;52.552;13.356;2022-07-22T04:45:30;4.10;;;3.35;;
17472;SDS011;8853;52.552;13.356;2022-07-22T04:47:59;3.83;;;3.35;;
17472;SDS011;8853;52.552;13.356;2022-07-22T04:50:27;4.83;;;3.70;;
17472;SDS011;8853;52.552;13.356;2022-07-22T04:52:56;5.17;;;3.72;;
17472;SDS011;8853;52.552;13.356;2022-07-22T04:55:25;5.47;;;3.58;;
17472;SDS011;8853;52.552;13.356;2022-07-22T04:57:53;3.67;;;3.20;;
17472;SDS011;8853;52.552;13.356;2022-07-22T05:00:22;4.78;;;3.40;;
17472;SDS011;8853;52.552;13.356;2022-07-22T05:02:51;3.92;;;3.50;;
17472;SDS011;8853;52.552;13.356;2022-07-22T05:05:20;5.00;;;3.60;;
17472;SDS011;8853;52.552;13.356;2022-07-22T05:07:49;4.10;;;3.70;;
17472;SDS011;8853;52.552;13.356;2022-07-22T05:10:17;4.10;;;3.37;;
17472;SDS011;8853;52.552;13.356;2022-07-22T05:12:46;4.30;;;3.80;;
17472;SDS011;8853;52.552;13.356;2022-07-22T05:15:15;4.12;;;3.35;;
17472;SDS011;8853;52.552;13.356;2022-07-22T05:17:44;5.20;;;3.60;;
17472;SDS011;8853;52.552;13.356;2022-07-22T05:20:13;5.87;;;3.52;;
17472;SDS011;8853;52.552;13.356;2022-07-22T05:22:42;4.85;;;3.50;;
17472;SDS011;8853;52.552;13.356;2022-07-22T05:25:11;4.95;;;4.00;;
17472;SDS011;8853;52.552;13.356;2022-07-22T05:27:48;4.33;;;3.60;;
17472;SDS011;8853;52.552;13.356;2022-07-22T05:30:08;4.70;;;4.17;;
17472;SDS011;8853;52.552;13.356;2022-07-22T05:32:37;5.22;;;4.33;;
17472;SDS011;8853;52.552;13.356;2022-07-22T05:35:06;5.80;;;4.97;;
17472;SDS011;8853;52.552;13.356;2022-07-22T05:37:34;6.78;;;5.00;;
17472;SDS011;8853;52.552;13.356;2022-07-22T05:40:03;6.30;;;5.22;;
17472;SDS011;8853;52.552;13.356;2022-07-22T05:42:32;6.25;;;4.50;;
17472;SDS011;8853;52.552;13.356;2022-07-22T05:45:01;6.28;;;4.55;;
17472;SDS011;8853;52.552;13.356;2022-07-22T05:47:30;6.60;;;4.50;;
17472;SDS011;8853;52.552;13.356;2022-07-22T05:49:59;6.12;;;4.33;;
17472;SDS011;8853;52.552;13.356;2022-07-22T05:52:28;6.42;;;5.12;;
17472;SDS011;8853;52.552;13.356;2022-07-22T05:54:59;6.50;;;5.08;;
17472;SDS011;8853;52.552;13.356;2022-07-22T05:57:25;6.40;;;4.53;;
17472;SDS011;8853;52.552;13.356;2022-07-22T05:59:54;8.05;;;5.65;;
17472;SDS011;8853;52.552;13.356;2022-07-22T06:02:23;5.92;;;5.00;;
17472;SDS011;8853;52.552;13.356;2022-07-22T06:04:51;7.05;;;4.83;;
17472;SDS011;8853;52.552;13.356;2022-07-22T06:07:20;7.28;;;5.60;;
17472;SDS011;8853;52.552;13.356;2022-07-22T06:09:49;8.40;;;5.03;;
17472;SDS011;8853;52.552;13.356;2022-07-22T06:12:18;6.50;;;5.50;;
17472;SDS011;8853;52.552;13.356;2022-07-22T06:14:47;6.95;;;5.28;;
17472;SDS011;8853;52.552;13.356;2022-07-22T06:17:16;10.23;;;5.70;;
17472;SDS011;8853;52.552;13.356;2022-07-22T06:19:45;8.40;;;5.47;;
17472;SDS011;8853;52.552;13.356;2022-07-22T06:22:13;5.90;;;5.08;;
17472;SDS011;8853;52.552;13.356;2022-07-22T06:24:42;7.30;;;5.25;;
17472;SDS011;8853;52.552;13.356;2022-07-22T06:27:11;5.90;;;5.30;;
17472;SDS011;8853;52.552;13.356;2022-07-22T06:29:40;6.60;;;5.20;;
17472;SDS011;8853;52.552;13.356;2022-07-22T06:32:08;6.60;;;5.80;;
17472;SDS011;8853;52.552;13.356;2022-07-22T06:34:37;6.95;;;5.67;;
17472;SDS011;8853;52.552;13.356;2022-07-22T06:37:06;6.97;;;5.60;;
17472;SDS011;8853;52.552;13.356;2022-07-22T06:39:35;6.65;;;5.45;;
17472;SDS011;8853;52.552;13.356;2022-07-22T06:42:03;7.08;;;6.10;;
17472;SDS011;8853;52.552;13.356;2022-07-22T06:44:32;6.90;;;5.55;;
17472;SDS011;8853;52.552;13.356;2022-07-22T06:47:00;6.15;;;5.20;;
17472;SDS011;8853;52.552;13.356;2022-07-22T06:49:29;8.43;;;6.10;;
17472;SDS011;8853;52.552;13.356;2022-07-22T06:51:58;6.87;;;5.60;;
17472;SDS011;8853;52.552;13.356;2022-07-22T06:54:27;7.58;;;5.90;;
17472;SDS011;8853;52.552;13.356;2022-07-22T06:56:56;6.42;;;5.10;;
17472;SDS011;8853;52.552;13.356;2022-07-22T06:59:24;9.85;;;5.10;;
17472;SDS011;8853;52.552;13.356;2022-07-22T07:01:53;5.80;;;4.70;;
17472;SDS011;8853;52.552;13.356;2022-07-22T07:04:22;6.70;;;5.50;;
17472;SDS011;8853;52.552;13.356;2022-07-22T07:06:50;6.22;;;5.40;;
17472;SDS011;8853;52.552;13.356;2022-07-22T07:09:19;7.65;;;5.50;;
17472;SDS011;8853;52.552;13.356;2022-07-22T07:11:47;10.50;;;6.08;;
17472;SDS011;8853;52.552;13.356;2022-07-22T07:14:16;7.20;;;5.67;;
17472;SDS011;8853;52.552;13.356;2022-07-22T07:16:45;6.60;;;5.35;;
17472;SDS011;8853;52.552;13.356;2022-07-22T07:19:13;6.00;;;5.40;;
17472;SDS011;8853;52.552;13.356;2022-07-22T07:21:42;5.95;;;5.30;;
17472;SDS011;8853;52.552;13.356;2022-07-22T07:24:11;7.08;;;5.08;;
17472;SDS011;8853;52.552;13.356;2022-07-22T07:26:39;6.97;;;5.35;;
17472;SDS011;8853;52.552;13.356;2022-07-22T07:29:08;5.87;;;5.28;;
17472;SDS011;8853;52.552;13.356;2022-07-22T07:31:36;6.17;;;5.12;;
17472;SDS011;8853;52.552;13.356;2022-07-22T07:34:05;7.40;;;5.75;;
17472;SDS011;8853;52.552;13.356;2022-07-22T07:36:34;7.35;;;5.37;;
17472;SDS011;8853;52.552;13.356;2022-07-22T07:39:02;8.73;;;5.50;;
17472;SDS011;8853;52.552;13.356;2022-07-22T07:41:31;10.88;;;5.55;;
17472;SDS011;8853;52.552;13.356;2022-07-22T07:44:00;6.33;;;4.95;;
17472;SDS011;8853;52.552;13.356;2022-07-22T07:46:28;6.42;;;5.25;;
17472;SDS011;8853;52.552;13.356;2022-07-22T07:48:57;7.72;;;5.17;;
17472;SDS011;8853;52.552;13.356;2022-07-22T07:51:25;6.95;;;4.85;;
17472;SDS011;8853;52.552;13.356;2022-07-22T07:53:54;5.47;;;4.47;;
17472;SDS011;8853;52.552;13.356;2022-07-22T07:56:23;18.67;;;4.60;;
17472;SDS011;8853;52.552;13.356;2022-07-22T07:58:52;6.25;;;4.92;;
17472;SDS011;8853;52.552;13.356;2022-07-22T08:01:21;15.25;;;4.58;;
17472;SDS011;8853;52.552;13.356;2022-07-22T08:03:49;8.10;;;4.55;;
17472;SDS011;8853;52.552;13.356;2022-07-22T08:06:19;4.50;;;4.03;;
17472;SDS011;8853;52.552;13.356;2022-07-22T08:08:47;4.87;;;4.00;;
17472;SDS011;8853;52.552;13.356;2022-07-22T08:11:16;6.37;;;4.00;;
17472;SDS011;8853;52.552;13.356;2022-07-22T08:13:44;6.40;;;3.90;;
17472;SDS011;8853;52.552;13.356;2022-07-22T08:16:13;4.50;;;3.87;;
17472;SDS011;8853;52.552;13.356;2022-07-22T08:18:42;4.53;;;3.80;;
17472;SDS011;8853;52.552;13.356;2022-07-22T08:21:10;4.62;;;3.47;;
17472;SDS011;8853;52.552;13.356;2022-07-22T08:23:40;5.03;;;3.85;;
17472;SDS011;8853;52.552;13.356;2022-07-22T08:26:08;5.28;;;4.10;;
17472;SDS011;8853;52.552;13.356;2022-07-22T08:28:38;5.70;;;3.65;;
17472;SDS011;8853;52.552;13.356;2022-07-22T08:31:06;4.25;;;3.50;;
17472;SDS011;8853;52.552;13.356;2022-07-22T08:33:35;4.30;;;3.90;;
17472;SDS011;8853;52.552;13.356;2022-07-22T08:36:04;5.45;;;3.85;;
17472;SDS011;8853;52.552;13.356;2022-07-22T08:38:32;4.03;;;3.60;;
17472;SDS011;8853;52.552;13.356;2022-07-22T08:41:02;4.37;;;3.30;;
17472;SDS011;8853;52.552;13.356;2022-07-22T08:43:31;4.30;;;3.75;;
17472;SDS011;8853;52.552;13.356;2022-07-22T08:45:59;3.72;;;3.30;;
17472;SDS011;8853;52.552;13.356;2022-07-22T08:48:28;3.62;;;3.30;;
17472;SDS011;8853;52.552;13.356;2022-07-22T08:50:56;5.75;;;3.62;;
17472;SDS011;8853;52.552;13.356;2022-07-22T08:53:25;3.90;;;3.50;;
17472;SDS011;8853;52.552;13.356;2022-07-22T08:55:54;5.10;;;3.40;;
17472;SDS011;8853;52.552;13.356;2022-07-22T08:58:23;3.37;;;3.08;;
17472;SDS011;8853;52.552;13.356;2022-07-22T09:01:07;3.58;;;3.27;;
17472;SDS011;8853;52.552;13.356;2022-07-22T09:03:32;4.20;;;3.60;;
17472;SDS011;8853;52.552;13.356;2022-07-22T09:06:01;3.85;;;3.42;;
17472;SDS011;8853;52.552;13.356;2022-07-22T09:08:29;3.67;;;3.27;;
17472;SDS011;8853;52.552;13.356;2022-07-22T09:10:58;4.33;;;3.45;;
17472;SDS011;8853;52.552;13.356;2022-07-22T09:13:27;3.50;;;3.20;;
17472;SDS011;8853;52.552;13.356;2022-07-22T09:15:55;4.33;;;3.35;;
17472;SDS011;8853;52.552;13.356;2022-07-22T09:18:24;3.50;;;3.20;;
17472;SDS011;8853;52.552;13.356;2022-07-22T09:20:57;3.25;;;2.95;;
17472;SDS011;8853;52.552;13.356;2022-07-22T09:23:21;5.08;;;3.70;;
17472;SDS011;8853;52.552;13.356;2022-07-22T09:25:50;3.40;;;3.10;;
17472;SDS011;8853;52.552;13.356;2022-07-22T09:28:20;3.47;;;3.17;;
17472;SDS011;8853;52.552;13.356;2022-07-22T09:30:48;4.62;;;3.80;;
17472;SDS011;8853;52.552;13.356;2022-07-22T09:33:22;3.77;;;3.10;;
17472;SDS011;8853;52.552;13.356;2022-07-22T09:35:50;3.33;;;3.00;;
17472;SDS011;8853;52.552;13.356;2022-07-22T09:38:26;3.58;;;3.27;;
17472;SDS011;8853;52.552;13.356;2022-07-22T09:40:48;3.40;;;2.95;;
17472;SDS011;8853;52.552;13.356;2022-07-22T09:43:18;4.97;;;3.10;;
17472;SDS011;8853;52.552;13.356;2022-07-22T09:48:18;2.70;;;2.50;;
17472;SDS011;8853;52.552;13.356;2022-07-22T09:50:47;3.30;;;3.00;;
17472;SDS011;8853;52.552;13.356;2022-07-22T09:53:15;3.22;;;2.90;;
17472;SDS011;8853;52.552;13.356;2022-07-22T09:55:43;3.30;;;2.98;;
17472;SDS011;8853;52.552;13.356;2022-07-22T09:58:12;3.25;;;2.95;;
17472;SDS011;8853;52.552;13.356;2022-07-22T10:00:41;5.70;;;2.70;;
17472;SDS011;8853;52.552;13.356;2022-07-22T10:03:23;3.15;;;2.85;;
17472;SDS011;8853;52.552;13.356;2022-07-22T10:05:53;2.55;;;2.35;;
17472;SDS011;8853;52.552;13.356;2022-07-22T10:08:22;3.00;;;2.70;;
17472;SDS011;8853;52.552;13.356;2022-07-22T10:10:50;4.40;;;2.42;;
17472;SDS011;8853;52.552;13.356;2022-07-22T10:13:19;2.58;;;2.37;;
17472;SDS011;8853;52.552;13.356;2022-07-22T10:15:48;3.33;;;2.30;;
17472;SDS011;8853;52.552;13.356;2022-07-22T10:18:17;2.10;;;1.90;;
17472;SDS011;8853;52.552;13.356;2022-07-22T10:20:45;2.30;;;2.10;;
17472;SDS011;8853;52.552;13.356;2022-07-22T10:23:14;1.90;;;1.80;;
17472;SDS011;8853;52.552;13.356;2022-07-22T10:25:48;1.98;;;1.77;;
17472;SDS011;8853;52.552;13.356;2022-07-22T10:28:27;2.10;;;1.90;;
17472;SDS011;8853;52.552;13.356;2022-07-22T10:33:47;2.65;;;1.75;;
17472;SDS011;8853;52.552;13.356;2022-07-22T10:36:13;2.22;;;2.00;;
17472;SDS011;8853;52.552;13.356;2022-07-22T10:41:37;2.20;;;2.00;;
17472;SDS011;8853;52.552;13.356;2022-07-22T10:44:05;2.10;;;1.90;;
17472;SDS011;8853;52.552;13.356;2022-07-22T10:46:53;1.90;;;1.80;;
17472;SDS011;8853;52.552;13.356;2022-07-22T10:49:23;1.98;;;1.87;;
17472;SDS011;8853;52.552;13.356;2022-07-22T10:57:43;1.92;;;1.80;;
17472;SDS011;8853;52.552;13.356;2022-07-22T11:00:12;2.60;;;2.10;;
17472;SDS011;8853;52.552;13.356;2022-07-22T11:02:40;2.00;;;1.90;;
17472;SDS011;8853;52.552;13.356;2022-07-22T11:05:09;2.60;;;2.30;;
17472;SDS011;8853;52.552;13.356;2022-07-22T11:07:41;2.62;;;2.42;;
17472;SDS011;8853;52.552;13.356;2022-07-22T11:10:13;2.92;;;2.40;;
17472;SDS011;8853;52.552;13.356;2022-07-22T11:12:41;2.90;;;2.37;;
17472;SDS011;8853;52.552;13.356;2022-07-22T11:15:10;2.70;;;2.50;;
17472;SDS011;8853;52.552;13.356;2022-07-22T11:17:39;2.95;;;2.70;;
17472;SDS011;8853;52.552;13.356;2022-07-22T11:20:09;2.80;;;2.60;;
17472;SDS011;8853;52.552;13.356;2022-07-22T11:22:37;3.02;;;2.77;;
17472;SDS011;8853;52.552;13.356;2022-07-22T11:25:06;3.15;;;2.80;;
17472;SDS011;8853;52.552;13.356;2022-07-22T11:27:34;4.22;;;2.95;;
17472;SDS011;8853;52.552;13.356;2022-07-22T11:30:03;3.08;;;2.77;;
17472;SDS011;8853;52.552;13.356;2022-07-22T11:32:32;3.85;;;2.90;;
17472;SDS011;8853;52.552;13.356;2022-07-22T11:35:01;3.62;;;3.20;;
17472;SDS011;8853;52.552;13.356;2022-07-22T11:37:30;3.95;;;3.00;;
17472;SDS011;8853;52.552;13.356;2022-07-22T11:40:05;2.95;;;2.75;;
17472;SDS011;8853;52.552;13.356;2022-07-22T11:42:33;2.90;;;2.70;;
17472;SDS011;8853;52.552;13.356;2022-07-22T11:45:02;3.15;;;2.85;;
17472;SDS011;8853;52.552;13.356;2022-07-22T11:47:31;2.92;;;2.70;;
17472;SDS011;8853;52.552;13.356;2022-07-22T11:50:00;2.83;;;2.62;;
17472;SDS011;8853;52.552;13.356;2022-07-22T11:52:28;4.30;;;2.85;;
17472;SDS011;8853;52.552;13.356;2022-07-22T11:54:58;2.72;;;2.50;;
17472;SDS011;8853;52.552;13.356;2022-07-22T11:57:26;3.60;;;2.52;;
17472;SDS011;8853;52.552;13.356;2022-07-22T11:59:55;2.50;;;2.30;;
17472;SDS011;8853;52.552;13.356;2022-07-22T12:02:23;2.72;;;2.52;;
17472;SDS011;8853;52.552;13.356;2022-07-22T12:04:52;2.60;;;2.40;;
17472;SDS011;8853;52.552;13.356;2022-07-22T12:07:21;2.52;;;2.33;;
17472;SDS011;8853;52.552;13.356;2022-07-22T12:09:50;3.90;;;2.50;;
17472;SDS011;8853;52.552;13.356;2022-07-22T12:12:19;3.58;;;2.60;;
17472;SDS011;8853;52.552;13.356;2022-07-22T12:14:47;2.80;;;2.60;;
17472;SDS011;8853;52.552;13.356;2022-07-22T12:17:16;2.67;;;2.47;;
17472;SDS011;8853;52.552;13.356;2022-07-22T12:19:45;3.40;;;2.80;;
17472;SDS011;8853;52.552;13.356;2022-07-22T12:22:20;3.22;;;2.62;;
17472;SDS011;8853;52.552;13.356;2022-07-22T12:24:57;2.98;;;2.75;;
17472;SDS011;8853;52.552;13.356;2022-07-22T12:27:27;2.85;;;2.58;;
17472;SDS011;8853;52.552;13.356;2022-07-22T12:29:55;2.72;;;2.40;;
17472;SDS011;8853;52.552;13.356;2022-07-22T12:32:25;2.72;;;2.52;;
17472;SDS011;8853;52.552;13.356;2022-07-22T12:37:34;2.70;;;2.50;;
17472;SDS011;8853;52.552;13.356;2022-07-22T12:40:03;2.30;;;2.10;;
17472;SDS011;8853;52.552;13.356;2022-07-22T12:42:35;2.10;;;1.98;;
17472;SDS011;8853;52.552;13.356;2022-07-22T12:45:06;2.52;;;1.90;;
17472;SDS011;8853;52.552;13.356;2022-07-22T12:50:31;2.45;;;1.92;;
17472;SDS011;8853;52.552;13.356;2022-07-22T12:53:12;1.90;;;1.80;;
17472;SDS011;8853;52.552;13.356;2022-07-22T12:55:40;2.12;;;1.62;;
17472;SDS011;8853;52.552;13.356;2022-07-22T12:58:12;2.80;;;1.60;;
17472;SDS011;8853;52.552;13.356;2022-07-22T13:00:41;1.82;;;1.70;;
17472;SDS011;8853;52.552;13.356;2022-07-22T13:03:12;2.27;;;1.50;;
17472;SDS011;8853;52.552;13.356;2022-07-22T13:05:40;1.70;;;1.55;;
17472;SDS011;8853;52.552;13.356;2022-07-22T13:08:09;1.50;;;1.40;;
17472;SDS011;8853;52.552;13.356;2022-07-22T13:10:37;1.70;;;1.60;;
17472;SDS011;8853;52.552;13.356;2022-07-22T13:13:06;1.98;;;1.60;;
17472;SDS011;8853;52.552;13.356;2022-07-22T13:15:35;1.70;;;1.60;;
17472;SDS011;8853;52.552;13.356;2022-07-22T13:18:03;1.95;;;1.75;;
17472;SDS011;8853;52.552;13.356;2022-07-22T13:20:32;1.70;;;1.60;;
17472;SDS011;8853;52.552;13.356;2022-07-22T13:23:01;1.70;;;1.60;;
17472;SDS011;8853;52.552;13.356;2022-07-22T13:25:29;2.00;;;1.80;;
17472;SDS011;8853;52.552;13.356;2022-07-22T13:27:58;1.67;;;1.57;;
17472;SDS011;8853;52.552;13.356;2022-07-22T13:30:27;1.62;;;1.52;;
17472;SDS011;8853;52.552;13.356;2022-07-22T13:32:57;3.05;;;1.60;;
17472;SDS011;8853;52.552;13.356;2022-07-22T13:35:25;1.55;;;1.45;;
17472;SDS011;8853;52.552;13.356;2022-07-22T13:37:53;2.02;;;1.57;;
17472;SDS011;8853;52.552;13.356;2022-07-22T13:40:23;1.75;;;1.50;;
17472;SDS011;8853;52.552;13.356;2022-07-22T13:42:52;2.00;;;1.40;;
17472;SDS011;8853;52.552;13.356;2022-07-22T13:45:20;1.98;;;1.42;;
17472;SDS011;8853;52.552;13.356;2022-07-22T13:47:49;1.60;;;1.50;;
17472;SDS011;8853;52.552;13.356;2022-07-22T13:50:19;1.92;;;1.32;;
17472;SDS011;8853;52.552;13.356;2022-07-22T13:52:47;1.40;;;1.30;;
17472;SDS011;8853;52.552;13.356;2022-07-22T13:55:16;1.80;;;1.47;;
17472;SDS011;8853;52.552;13.356;2022-07-22T13:57:45;1.45;;;1.35;;
17472;SDS011;8853;52.552;13.356;2022-07-22T14:00:14;1.40;;;1.30;;
17472;SDS011;8853;52.552;13.356;2022-07-22T14:02:45;1.95;;;1.50;;
17472;SDS011;8853;52.552;13.356;2022-07-22T14:05:14;2.00;;;1.62;;
17472;SDS011;8853;52.552;13.356;2022-07-22T14:07:43;1.98;;;1.50;;
17472;SDS011;8853;52.552;13.356;2022-07-22T14:10:11;1.42;;;1.32;;
17472;SDS011;8853;52.552;13.356;2022-07-22T14:12:40;1.35;;;1.22;;
17472;SDS011;8853;52.552;13.356;2022-07-22T14:15:09;1.57;;;1.37;;
17472;SDS011;8853;52.552;13.356;2022-07-22T14:17:38;1.82;;;1.40;;
17472;SDS011;8853;52.552;13.356;2022-07-22T14:20:07;1.95;;;1.40;;
17472;SDS011;8853;52.552;13.356;2022-07-22T14:22:35;1.80;;;1.40;;
17472;SDS011;8853;52.552;13.356;2022-07-22T14:25:04;1.57;;;1.30;;
17472;SDS011;8853;52.552;13.356;2022-07-22T14:27:33;1.40;;;1.30;;
17472;SDS011;8853;52.552;13.356;2022-07-22T14:30:02;5.03;;;1.40;;
17472;SDS011;8853;52.552;13.356;2022-07-22T14:32:30;1.40;;;1.30;;
17472;SDS011;8853;52.552;13.356;2022-07-22T14:35:00;1.55;;;1.45;;
17472;SDS011;8853;52.552;13.356;2022-07-22T14:37:28;1.40;;;1.30;;
17472;SDS011;8853;52.552;13.356;2022-07-22T14:39:57;1.30;;;1.20;;
17472;SDS011;8853;52.552;13.356;2022-07-22T14:42:26;1.50;;;1.40;;
17472;SDS011;8853;52.552;13.356;2022-07-22T14:44:54;2.10;;;1.50;;
17472;SDS011;8853;52.552;13.356;2022-07-22T14:47:24;1.65;;;1.52;;
17472;SDS011;8853;52.552;13.356;2022-07-22T14:49:52;1.30;;;1.20;;
17472;SDS011;8853;52.552;13.356;2022-07-22T14:52:21;1.40;;;1.30;;
17472;SDS011;8853;52.552;13.356;2022-07-22T14:54:50;1.30;;;1.20;;
17472;SDS011;8853;52.552;13.356;2022-07-22T14:57:18;2.00;;;1.42;;
17472;SDS011;8853;52.552;13.356;2022-07-22T14:59:47;1.45;;;1.35;;
17472;SDS011;8853;52.552;13.356;2022-07-22T15:02:15;1.45;;;1.35;;
17472;SDS011;8853;52.552;13.356;2022-07-22T15:04:44;1.40;;;1.30;;
17472;SDS011;8853;52.552;13.356;2022-07-22T15:07:13;1.40;;;1.30;;
17472;SDS011;8853;52.552;13.356;2022-07-22T15:09:41;1.67;;;1.57;;
17472;SDS011;8853;52.552;13.356;2022-07-22T15:12:11;1.47;;;1.32;;
17472;SDS011;8853;52.552;13.356;2022-07-22T15:14:39;1.98;;;1.32;;
17472;SDS011;8853;52.552;13.356;2022-07-22T15:17:08;1.20;;;1.10;;
17472;SDS011;8853;52.552;13.356;2022-07-22T15:19:36;2.35;;;1.20;;
17472;SDS011;8853;52.552;13.356;2022-07-22T15:22:05;1.40;;;1.30;;